createdAt,value
2019-05-23T00:02:48.335Z,27.60
2019-05-23T00:05:41.293Z,30.73
2019-05-23T00:09:03.239Z,28.93
2019-05-23T00:15:29.101Z,30.80
2019-05-23T00:21:50.494Z,31.37
2019-05-23T00:24:52.953Z,30.77
2019-05-23T00:28:06.081Z,28.67
2019-05-23T00:31:07.096Z,30.80
2019-05-23T00:39:37.638Z,30.97
2019-05-23T00:42:41.612Z,33.30
2019-05-23T00:45:36.438Z,30.70
2019-05-23T00:48:26.379Z,34.87
2019-05-23T00:51:04.992Z,32.70
2019-05-23T00:53:58.506Z,33.53
2019-05-23T00:56:40.486Z,32.20
2019-05-23T00:59:28.019Z,30.50
2019-05-23T01:02:33.401Z,31.33
2019-05-23T01:05:14.726Z,29.27
2019-05-23T01:07:43.957Z,29.47
2019-05-23T01:10:40.043Z,32.47
2019-05-23T01:13:36.639Z,30.57
2019-05-23T01:19:15.856Z,30.60
2019-05-23T01:24:57.904Z,32.97
2019-05-23T01:31:09.323Z,31.07
2019-05-23T01:45:54.578Z,34.30
2019-05-23T01:49:08.687Z,32.73
2019-05-23T01:58:03.748Z,34.07
2019-05-23T02:01:13.109Z,33.20
2019-05-23T02:06:41.070Z,33.30
2019-05-23T02:09:32.732Z,33.47
2019-05-23T02:12:33.668Z,33.83
2019-05-23T02:18:36.961Z,33.80
2019-05-23T02:20:56.506Z,35.10
2019-05-23T02:23:40.166Z,34.53
2019-05-23T02:25:48.705Z,34.97
2019-05-23T02:27:59.476Z,33.80
2019-05-23T02:30:34.189Z,34.20
2019-05-23T02:32:30.864Z,34.53
2019-05-23T02:35:23.128Z,34.20
2019-05-23T02:41:48.014Z,37.03
2019-05-23T02:44:46.857Z,37.37
2019-05-23T02:47:44.084Z,40.67
2019-05-23T02:50:57.873Z,38.23
2019-05-23T02:54:00.966Z,40.27
2019-05-23T02:56:49.503Z,37.03
2019-05-23T03:03:22.848Z,39.40
2019-05-23T03:05:29.440Z,38.83
2019-05-23T03:07:35.393Z,38.30
2019-05-23T03:09:43.259Z,38.60
2019-05-23T03:11:49.025Z,40.20
2019-05-23T03:13:55.880Z,42.50
2019-05-23T03:16:00.351Z,38.80
2019-05-23T03:18:07.448Z,37.80
2019-05-23T03:21:20.185Z,37.40
2019-05-23T03:23:57.389Z,40.40
2019-05-23T03:27:02.676Z,42.87
2019-05-23T03:29:43.159Z,41.30
2019-05-23T03:33:29.634Z,44.00
2019-05-23T03:35:58.514Z,42.67
2019-05-23T03:41:33.408Z,42.20
2019-05-23T03:44:28.307Z,38.73
2019-05-23T03:47:24.671Z,38.90
2019-05-23T03:50:05.347Z,34.27
2019-05-23T03:53:08.430Z,33.43
2019-05-23T03:59:50.863Z,32.57
2019-05-23T04:13:58.671Z,29.50
2019-05-23T04:16:37.992Z,29.17
2019-05-23T04:19:40.774Z,26.07
2019-05-23T04:22:21.475Z,27.10
2019-05-23T04:28:27.569Z,24.20
2019-05-23T04:31:24.890Z,25.47
2019-05-23T04:34:20.595Z,26.10
2019-05-23T04:40:04.273Z,26.33
2019-05-23T04:43:08.574Z,28.13
2019-05-23T04:49:14.876Z,26.10
2019-05-23T04:54:12.821Z,21.30
2019-05-23T05:03:01.468Z,16.80
2019-05-23T05:05:57.194Z,16.40
2019-05-23T05:08:23.577Z,17.00
2019-05-23T05:14:14.779Z,15.00
2019-05-23T05:20:39.493Z,15.73
2019-05-23T05:32:10.245Z,17.30
2019-05-23T05:54:21.720Z,18.43
2019-05-23T05:56:45.954Z,20.00
2019-05-23T06:00:03.172Z,21.10
2019-05-23T06:09:22.655Z,21.70
2019-05-23T06:12:09.349Z,20.80
2019-05-23T06:18:18.087Z,22.53
2019-05-23T06:21:02.528Z,21.93
2019-05-23T06:23:36.308Z,22.60
2019-05-23T06:26:02.420Z,24.03
2019-05-23T06:28:39.255Z,24.03
2019-05-23T06:31:17.326Z,26.53
2019-05-23T06:36:59.478Z,25.20
2019-05-23T06:39:25.355Z,27.00
2019-05-23T06:42:07.546Z,26.37
2019-05-23T06:45:40.354Z,26.50
2019-05-23T06:47:24.473Z,26.33
2019-05-23T06:49:56.585Z,27.03
2019-05-23T06:52:24.523Z,25.00
2019-05-23T06:55:13.790Z,28.77
2019-05-23T06:57:48.063Z,25.57
2019-05-23T07:00:32.880Z,27.60
2019-05-23T07:06:07.046Z,28.43
2019-05-23T07:08:38.763Z,28.70
2019-05-23T07:11:25.191Z,25.73
2019-05-23T07:14:26.784Z,23.80
2019-05-23T09:08:47.228Z,14.70
2019-05-23T09:11:05.242Z,13.50
2019-05-23T09:13:20.738Z,13.30
2019-05-23T09:15:42.807Z,12.40
2019-05-23T09:18:10.000Z,10.77
2019-05-23T09:20:41.141Z,12.50
2019-05-23T09:26:10.021Z,15.03
2019-05-23T09:28:27.922Z,11.10
2019-05-23T09:31:17.671Z,10.97
2019-05-23T09:33:41.908Z,10.00
2019-05-23T09:36:07.026Z,11.70
2019-05-23T09:38:44.789Z,11.33
2019-05-23T09:41:37.141Z,8.20
2019-05-23T09:44:15.932Z,8.67
2019-05-23T09:47:01.925Z,6.20
2019-05-23T09:49:38.397Z,7.13
2019-05-23T09:52:14.426Z,9.53
2019-05-23T09:54:44.349Z,10.20
2019-05-23T10:30:50.654Z,8.60
2019-05-23T10:33:36.761Z,7.60
2019-05-23T10:36:01.746Z,8.03
2019-05-23T10:41:09.664Z,6.33
2019-05-23T10:45:57.330Z,7.10
2019-05-23T10:48:31.785Z,7.43
2019-05-23T10:53:46.241Z,4.77
2019-05-23T10:56:21.886Z,4.27
2019-05-23T10:58:52.883Z,7.20
2019-05-23T11:01:26.240Z,5.90
2019-05-23T11:03:41.248Z,5.70
2019-05-23T11:06:16.605Z,6.60
2019-05-23T11:08:32.942Z,5.67
2019-05-23T11:11:06.029Z,6.50
2019-05-23T11:13:39.819Z,5.90
2019-05-23T11:15:56.803Z,7.27
2019-05-23T11:18:37.439Z,5.83
2019-05-23T11:24:54.759Z,5.47
2019-05-23T11:27:47.195Z,5.17
2019-05-23T11:30:29.435Z,6.30
2019-05-23T11:33:13.496Z,7.23
2019-05-23T11:36:00.230Z,6.33
2019-05-23T11:39:08.354Z,7.10
2019-05-23T11:41:55.958Z,7.90
2019-05-23T11:45:31.759Z,6.93
2019-05-23T11:47:39.346Z,5.30
2019-05-23T11:53:01.827Z,5.70
2019-05-23T11:55:27.747Z,5.43
2019-05-23T11:58:05.830Z,5.97
2019-05-23T12:01:04.808Z,5.77
2019-05-23T12:03:36.259Z,6.00
2019-05-23T12:09:11.047Z,6.20
2019-05-23T12:14:19.208Z,5.13
2019-05-23T12:17:05.066Z,6.00
2019-05-23T12:19:24.345Z,6.37
2019-05-23T12:21:41.266Z,5.80
2019-05-23T12:24:24.079Z,5.90
2019-05-23T12:26:34.471Z,6.10
2019-05-23T12:28:48.161Z,4.53
2019-05-23T12:31:17.980Z,6.40
2019-05-23T12:33:37.542Z,5.03
2019-05-23T12:35:55.207Z,6.77
2019-05-23T12:38:44.882Z,5.53
2019-05-23T12:40:52.858Z,5.20
2019-05-23T12:42:56.592Z,4.67
2019-05-23T12:45:00.292Z,5.37
2019-05-23T12:47:09.881Z,5.87
2019-05-23T12:49:36.217Z,5.73
2019-05-23T12:51:40.296Z,6.07
2019-05-23T12:53:53.208Z,5.70
2019-05-23T12:56:13.227Z,6.43
2019-05-23T12:58:22.825Z,5.13
2019-05-23T13:00:54.904Z,5.60
2019-05-23T13:03:08.103Z,4.27
2019-05-23T13:05:19.817Z,4.43
2019-05-23T13:07:35.855Z,5.17
2019-05-23T13:09:33.744Z,5.73
2019-05-23T13:11:39.900Z,4.73
2019-05-23T13:13:43.643Z,6.30
2019-05-23T13:15:47.523Z,5.83
2019-05-23T13:17:51.643Z,6.07
2019-05-23T13:19:56.955Z,4.27
2019-05-23T13:22:04.130Z,5.57
2019-05-23T13:24:14.135Z,5.50
2019-05-23T13:26:22.622Z,5.40
2019-05-23T13:28:34.701Z,5.87
2019-05-23T13:30:46.043Z,6.40
2019-05-23T13:32:52.454Z,5.83
2019-05-23T13:34:56.256Z,5.70
2019-05-23T13:37:08.034Z,4.30
2019-05-23T13:39:19.757Z,5.63
2019-05-23T13:41:23.506Z,5.57
2019-05-23T13:43:29.221Z,5.23
2019-05-23T13:45:33.889Z,6.30
2019-05-23T13:47:41.107Z,5.73
2019-05-23T13:49:50.679Z,5.30
2019-05-23T13:51:58.619Z,5.67
2019-05-23T13:54:05.272Z,6.13
2019-05-23T13:56:12.394Z,6.10
2019-05-23T13:58:20.407Z,6.70
2019-05-23T14:00:30.377Z,6.47
2019-05-23T14:02:36.218Z,6.43
2019-05-23T14:04:52.468Z,6.80
2019-05-23T14:06:56.265Z,6.53
2019-05-23T14:09:00.481Z,5.30
2019-05-23T14:11:08.488Z,6.23
2019-05-23T14:13:12.524Z,5.70
2019-05-23T14:15:19.441Z,6.47
2019-05-23T14:17:52.131Z,6.30
2019-05-23T14:20:04.338Z,5.70
2019-05-23T14:22:10.793Z,7.10
2019-05-23T14:24:14.208Z,6.23
2019-05-23T14:26:29.322Z,6.37
2019-05-23T14:28:35.415Z,6.63
2019-05-23T14:30:54.211Z,5.30
2019-05-23T14:33:02.379Z,7.77
2019-05-23T14:35:05.926Z,6.53
2019-05-23T14:37:17.602Z,7.20
2019-05-23T14:39:28.292Z,6.60
2019-05-23T14:41:45.603Z,7.47
2019-05-23T14:43:58.669Z,6.63
2019-05-23T14:46:12.331Z,6.40
2019-05-23T14:48:35.223Z,6.97
2019-05-23T14:51:03.853Z,6.20
2019-05-23T14:53:12.849Z,6.60
2019-05-23T14:55:16.580Z,5.37
2019-05-23T14:57:24.669Z,5.07
2019-05-23T14:59:30.662Z,5.87
2019-05-23T15:01:44.053Z,6.00
2019-05-23T15:03:54.123Z,5.67
2019-05-23T15:06:12.771Z,5.50
2019-05-23T15:08:23.383Z,5.97
2019-05-23T15:10:32.097Z,5.47
2019-05-23T15:12:41.468Z,4.60
2019-05-23T21:16:08.832Z,11.83
2019-05-23T23:59:53.743Z,14.20
